Latest Coastal Weather Observations for Roebourne Airport

IDW60701

Issued at 8:33 pm WST Sunday 9 August 2020 (issued every 10 minutes, with the page automatically refreshed every 10 minutes)

About coastal observations | Map of coastal stations | Coastal observations for WA | Marine services | Other Formats
Station Details ID: 004090 Name: ROEBOURNE AERO Lat: -20.76 Lon: 117.16 Height: 10.7 m
Data from the previous 72 hours. | See also: Recent months at Roebourne Airport
Date/Time
WST
Wind Sea
Height
m
Swell Vis
km
Cloud Weather Temp
°C
Press
hPa
Rain since
9am
mm
Dir  Spd
kts
Gust
kts
Height
m
Period
s
Dir
09/08:30pm NE 3 4 - - - - - - - 20.6 1012.4 0.0
09/08:00pm NE 6 7 - - - - - - - 20.7 1012.2 0.0
09/07:30pm NE 5 6 - - - - - - - 20.8 1012.2 0.0
09/07:00pm NNE 5 6 - - - - - - - 21.0 1012.0 0.0
09/06:30pm NE 6 7 - - - - - - - 21.5 1011.7 0.0
09/06:00pm NE 8 11 - - - - - - - 22.1 1011.5 0.0
09/05:30pm NNE 10 12 - - - - - - - 22.8 1011.5 0.0
09/05:00pm NE 9 13 - - - - - - - 23.7 1011.5 0.0
09/04:30pm NE 9 12 - - - - - - - 24.2 1011.5 0.0
09/04:00pm NE 11 13 - - - - - - - 24.1 1011.3 0.0
09/03:30pm NE 11 16 - - - - - - - 25.5 1011.2 0.0
09/03:00pm NE 12 15 - - - - - - - 25.8 1011.2 0.0
09/02:30pm NE 13 17 - - - - - - - 25.6 1011.4 0.0
09/02:00pm NE 9 12 - - - - - - - 25.5 1011.7 0.0
09/01:30pm NE 11 14 - - - - - - - 25.0 1012.2 0.0
09/01:00pm NE 10 15 - - - - - - - 26.5 1012.5 0.0
09/12:30pm NE 10 14 - - - - - - - 25.8 1013.1 0.0
09/12:00pm ENE 11 14 - - - - - - - 24.5 1013.6 0.0
09/11:30am ENE 10 13 - - - - - - - 25.2 1013.9 0.0
09/11:00am ENE 10 12 - - - - - - - 24.0 1014.4 0.0
09/10:30am ENE 8 10 - - - - - - - 22.5 1015.2 0.0
09/10:00am ENE 8 9 - - - - - - - 22.1 1015.5 0.0
09/09:30am E 8 10 - - - - - - - 20.7 1015.6 0.0
09/09:00am E 9 11 - - - - - - - 20.0 1015.4 0.0
09/08:30am E 9 11 - - - - - - - 18.7 1015.1 0.0
09/08:00am E 7 9 - - - - - - - 17.0 1015.0 0.0
09/07:30am SE 3 5 - - - - - - - 14.9 1014.7 0.0
09/07:00am E 5 6 - - - - - - - 12.5 1014.5 0.0
09/06:30am ENE 4 5 - - - - - - - 11.8 1014.3 0.0
09/06:00am ENE 4 5 - - - - - - - 11.9 1014.1 0.0
09/05:30am E 6 8 - - - - - - - 12.0 1013.6 0.0
09/05:00am ENE 4 6 - - - - - - - 12.0 1013.6 0.0
09/04:30am ESE 6 7 - - - - - - - 13.0 1013.4 0.0
09/04:00am E 4 5 - - - - - - - 12.6 1013.4 0.0
09/03:30am CALM 0 0 - - - - - - - 12.8 1013.5 0.0
09/03:00am CALM 0 0 - - - - - - - 12.6 1013.7 0.0
09/02:30am CALM 0 0 - - - - - - - 12.9 1013.8 0.0
09/02:00am SSE 3 5 - - - - - - - 13.1 1014.1 0.0
09/01:30am S 7 7 - - - - - - - 12.7 1014.1 0.0
09/01:00am SSW 4 5 - - - - - - - 13.7 1014.2 0.0
09/12:30am CALM 0 3 - - - - - - - 14.2 1014.2 0.0
09/12:00am SE 4 5 - - - - - - - 14.3 1014.2 0.0
 
Date/Time
WST
Wind Sea
Height
m
Swell Vis
km
Cloud Weather Temp
°C
Press
hPa
Rain since
9am
mm
Dir  Spd
kts
Gust
kts
Height
m
Period
s
Dir
08/11:30pm ESE 7 8 - - - - - - - 14.4 1014.1 0.0
08/11:00pm ESE 7 7 - - - - - - - 14.4 1014.3 0.0
08/10:30pm ESE 7 8 - - - - - - - 15.1 1014.1 0.0
08/10:00pm ESE 7 9 - - - - - - - 15.1 1014.2 0.0
08/09:30pm E 7 8 - - - - - - - 15.1 1014.3 0.0
08/09:00pm E 6 7 - - - - - - - 15.5 1014.5 0.0
08/08:30pm ENE 5 5 - - - - - - - 16.0 1014.5 0.0
08/08:00pm NE 3 5 - - - - - - - 16.4 1014.5 0.0
08/07:30pm NNE 3 4 - - - - - - - 17.7 1014.4 0.0
08/07:00pm N 3 4 - - - - - - - 18.8 1014.4 0.0
08/06:30pm NNE 6 7 - - - - - - - 19.3 1014.1 0.0
08/06:00pm N 8 10 - - - - - - - 20.9 1014.1 0.0
08/05:30pm NNE 13 16 - - - - - - - 22.3 1013.9 0.0
08/05:00pm NNE 14 18 - - - - - - - 23.0 1013.8 0.0
08/04:30pm NNE 16 19 - - - - - - - 23.6 1013.7 0.0
08/04:00pm NNE 16 20 - - - - - - - 24.2 1013.4 0.0
08/03:30pm NNE 15 18 - - - - - - - 24.5 1013.5 0.0
08/03:00pm NNE 16 20 - - - - - - - 24.9 1013.7 0.0
08/02:30pm NNE 17 20 - - - - - - - 24.7 1014.1 0.0
08/02:00pm NNE 17 21 - - - - - - - 25.1 1014.0 0.0
08/01:30pm NE 15 19 - - - - - - - 25.9 1014.7 0.0
08/01:00pm NE 16 22 - - - - - - - 25.4 1015.3 0.0
08/12:30pm ENE 18 24 - - - - - - - 25.1 1015.7 0.0
08/12:00pm ENE 18 24 - - - - - - - 24.8 1016.2 0.0
08/11:30am ENE 18 25 - - - - - - - 24.4 1016.7 0.0
08/11:00am ENE 18 24 - - - - - - - 23.1 1017.2 0.0
08/10:30am ENE 20 27 - - - - - - - 22.8 1017.6 0.0
08/10:00am ENE 20 26 - - - - - - - 22.3 1017.8 0.0
08/09:30am E 18 22 - - - - - - - 21.6 1018.0 0.0
08/09:00am E 16 23 - - - - - - - 20.8 1017.8 0.0
08/08:30am ESE 11 14 - - - - - - - 19.7 1017.7 0.0
08/08:00am ESE 5 8 - - - - - - - 17.5 1017.6 0.0
08/07:30am CALM 0 0 - - - - - - - 12.7 1017.4 0.0
08/07:00am SW 1 4 - - - - - - - 10.4 1017.1 0.0
08/06:30am SSW 5 5 - - - - - - - 10.3 1016.8 0.0
08/06:00am CALM 0 0 - - - - - - - 10.4 1016.6 0.0
08/05:30am CALM 0 0 - - - - - - - 10.7 1016.3 0.0
08/05:00am CALM 0 2 - - - - - - - 11.1 1016.1 0.0
08/04:30am NNE 2 6 - - - - - - - 11.2 1016.0 0.0
08/04:00am CALM 0 2 - - - - - - - 12.0 1016.1 0.0
08/03:30am CALM 0 0 - - - - - - - 12.1 1016.2 0.0
08/03:00am CALM 0 0 - - - - - - - 12.5 1016.1 0.0
08/02:30am CALM 0 2 - - - - - - - 11.7 1015.9 0.0
08/02:00am S 4 4 - - - - - - - 12.4 1015.8 0.0
08/01:30am SSW 5 6 - - - - - - - 12.5 1015.9 0.0
08/01:00am SSW 3 4 - - - - - - - 12.5 1016.2 0.0
08/12:30am SSW 6 7 - - - - - - - 13.7 1016.1 0.0
08/12:00am SSW 7 8 - - - - - - - 14.1 1016.3 0.0
 
Date/Time
WST
Wind Sea
Height
m
Swell Vis
km
Cloud Weather Temp
°C
Press
hPa
Rain since
9am
mm
Dir  Spd
kts
Gust
kts
Height
m
Period
s
Dir
07/11:30pm S 6 7 - - - - - - - 13.9 1016.4 0.0
07/11:00pm S 6 6 - - - - - - - 13.8 1016.6 0.0
07/10:30pm S 5 5 - - - - - - - 14.0 1016.7 0.0
07/10:00pm CALM 0 0 - - - - - - - 14.8 1016.7 0.0
07/09:30pm CALM 0 0 - - - - - - - 15.1 1016.6 0.0
07/09:00pm CALM 0 0 - - - - - - - 15.3 1016.7 0.0
07/08:30pm CALM 0 0 - - - - - - - 16.0 1016.8 0.0
07/08:00pm CALM 0 0 - - - - - - - 16.4 1016.8 0.0
07/07:30pm CALM 0 0 - - - - - - - 17.1 1016.6 0.0
07/07:00pm N 6 6 - - - - - - - 18.5 1016.2 0.0
07/06:30pm N 6 7 - - - - - - - 19.1 1016.1 0.0
07/06:00pm N 7 7 - - - - - - - 20.7 1016.2 0.0
07/05:30pm N 10 13 - - - - - - - 22.0 1016.2 0.0
07/05:00pm N 11 14 - - - - - - - 22.9 1015.9 0.0
07/04:30pm N 12 15 - - - - - - - 23.2 1015.9 0.0
07/04:00pm N 13 16 - - - - - - - 23.5 1016.0 0.0
07/03:30pm N 14 20 - - - - - - - 23.7 1015.9 0.0
07/03:00pm NNE 13 17 - - - - - - - 24.0 1016.1 0.0
07/02:30pm NNE 13 17 - - - - - - - 24.0 1016.4 0.0
07/02:00pm NNE 14 19 - - - - - - - 24.7 1016.6 0.0
07/01:30pm NE 14 19 - - - - - - - 24.7 1016.9 0.0
07/01:00pm NE 14 21 - - - - - - - 24.7 1017.4 0.0
07/12:30pm NE 16 21 - - - - - - - 24.7 1018.0 0.0
07/12:00pm NE 17 23 - - - - - - - 24.4 1018.3 0.0
07/11:30am NE 17 23 - - - - - - - 24.2 1018.8 0.0
07/11:00am E 17 25 - - - - - - - 24.3 1019.0 0.0
07/10:30am ENE 20 26 - - - - - - - 23.1 1019.2 0.0
07/10:00am E 20 26 - - - - - - - 22.6 1019.0 0.0
07/09:30am E 19 25 - - - - - - - 22.2 1019.1 0.0
07/09:00am E 20 26 - - - - - - - 20.7 1018.7 0.0
07/08:30am ESE 15 19 - - - - - - - 19.7 1018.4 0.0
07/08:00am ESE 12 16 - - - - - - - 17.8 1018.1 0.0
07/07:30am ESE 11 14 - - - - - - - 16.6 1018.1 0.0
07/07:00am SE 11 14 - - - - - - - 15.4 1017.7 0.0
07/06:30am ESE 11 13 - - - - - - - 14.3 1017.3 0.0
07/06:00am ESE 11 13 - - - - - - - 14.6 1016.9 0.0
07/05:30am ESE 13 15 - - - - - - - 15.7 1016.3 0.0
07/05:00am SE 12 16 - - - - - - - 16.5 1015.7 0.0
07/04:30am SE 10 12 - - - - - - - 14.0 1015.7 0.0
07/04:00am SSE 6 7 - - - - - - - 11.1 1015.7 0.0
07/03:30am S 5 5 - - - - - - - 11.2 1015.9 0.0
07/03:00am S 6 6 - - - - - - - 10.9 1015.9 0.0
07/02:30am SSW 7 7 - - - - - - - 10.8 1015.9 0.0
07/02:00am SW 5 5 - - - - - - - 10.6 1016.2 0.0
07/01:30am SSW 6 6 - - - - - - - 11.0 1016.2 0.0
07/01:00am SW 2 3 - - - - - - - 11.7 1016.3 0.0
07/12:30am WSW 2 4 - - - - - - - 11.9 1016.4 0.0
07/12:00am SSW 7 7 - - - - - - - 12.9 1016.5 0.0
 
Date/Time
WST
Wind Sea
Height
m
Swell Vis
km
Cloud Weather Temp
°C
Press
hPa
Rain since
9am
mm
Dir  Spd
kts
Gust
kts
Height
m
Period
s
Dir
06/11:30pm S 6 6 - - - - - - - 12.5 1016.6 0.0
06/11:00pm S 5 6 - - - - - - - 12.7 1016.8 0.0
06/10:30pm S 4 5 - - - - - - - 12.6 1016.8 0.0
06/10:00pm CALM 0 0 - - - - - - - 13.8 1016.5 0.0
06/09:30pm CALM 0 0 - - - - - - - 15.5 1016.6 0.0
06/09:00pm NE 4 6 - - - - - - - 15.3 1016.5 0.0

Other formats

Comma delimited format used in spreadsheet applications
http://www.bom.gov.au/fwo/IDW60701/IDW60701.94308.axf

JavaScript Object Notation format (JSON) in row-major order
http://www.bom.gov.au/fwo/IDW60701/IDW60701.94308.json

Data quality

Most of these data are generated automatically and are frequently updated. Quality checks on data are not normally performed. It is possible for incorrect values to appear. Refer to information at About Latest Weather Observations and please check the disclaimer before using these data.